Time;durP1;ratioP1;P1;durP2;ratioP2;P2;SDS_P1;SDS_P2;PMS_P1;PMS_P2;Temp;Humidity;BMP_temperature;BMP_pressure;BME280_temperature;BME280_humidity;BME280_pressure;Samples;Min_cycle;Max_cycle;Signal;HPM_P1;HPM_P2
2022/10/01 00:02:30;;;;;;;4.28;1.55;;;;;;;;;;10414452;28;20226;-79
2022/10/01 00:07:36;;;;;;;1.52;1.42;;;;;;;;;;10412767;28;20215;-79
2022/10/01 00:12:38;;;;;;;1.30;1.27;;;;;;;;;;10416065;28;20227;-79
2022/10/01 00:17:39;;;;;;;0.93;0.93;;;;;;;;;;10398687;28;20800;-79
2022/10/01 00:22:40;;;;;;;0.98;0.98;;;;;;;;;;10410761;28;20234;-79
2022/10/01 00:27:45;;;;;;;1.25;0.98;;;;;;;;;;10411448;28;20211;-79
2022/10/01 00:32:46;;;;;;;0.90;0.90;;;;;;;;;;10414217;28;20306;-78
2022/10/01 00:37:51;;;;;;;0.98;0.98;;;;;;;;;;10412410;28;20211;-79
2022/10/01 00:42:52;;;;;;;1.02;0.93;;;;;;;;;;10408559;28;20333;-79
2022/10/01 00:47:57;;;;;;;0.80;0.80;;;;;;;;;;10409628;28;20222;-79
2022/10/01 00:53:04;;;;;;;0.90;0.90;;;;;;;;;;10408977;28;20207;-78
2022/10/01 00:58:06;;;;;;;1.30;1.30;;;;;;;;;;10394551;28;21021;-79
2022/10/01 01:03:09;;;;;;;1.25;1.15;;;;;;;;;;10393400;28;20226;-80
2022/10/01 01:08:10;;;;;;;0.88;0.88;;;;;;;;;;10405459;28;20747;-78
2022/10/01 01:13:17;;;;;;;1.15;1.15;;;;;;;;;;10420756;28;20695;-80
2022/10/01 01:18:24;;;;;;;4.70;1.10;;;;;;;;;;10407780;28;20222;-78
2022/10/01 01:23:31;;;;;;;0.98;0.98;;;;;;;;;;10382678;28;20215;-79
2022/10/01 01:28:40;;;;;;;2.45;1.02;;;;;;;;;;10404310;28;20314;-78
2022/10/01 01:33:43;;;;;;;1.08;1.08;;;;;;;;;;10405359;28;21034;-79
2022/10/01 01:38:47;;;;;;;1.48;1.40;;;;;;;;;;10402355;28;20774;-80
2022/10/01 01:43:50;;;;;;;1.95;1.08;;;;;;;;;;10405054;28;20628;-79
2022/10/01 01:48:52;;;;;;;1.25;1.25;;;;;;;;;;10409230;28;20731;-79
2022/10/01 01:53:53;;;;;;;1.95;1.17;;;;;;;;;;10405402;28;20237;-79
2022/10/01 01:58:54;;;;;;;1.58;1.48;;;;;;;;;;10402329;28;20610;-79
2022/10/01 02:03:55;;;;;;;1.83;1.70;;;;;;;;;;10403818;28;20222;-80
2022/10/01 02:09:07;;;;;;;1.80;1.70;;;;;;;;;;10393756;28;20245;-78
2022/10/01 02:14:24;;;;;;;1.65;1.23;;;;;;;;;;10402425;28;20275;-80
2022/10/01 02:19:36;;;;;;;1.30;1.30;;;;;;;;;;10404982;28;20234;-79
2022/10/01 02:24:40;;;;;;;1.75;1.58;;;;;;;;;;10384192;28;20859;-79
2022/10/01 02:29:43;;;;;;;3.55;1.67;;;;;;;;;;10401396;28;20824;-79
2022/10/01 02:34:45;;;;;;;1.80;1.75;;;;;;;;;;10391477;28;20735;-79
2022/10/01 02:39:47;;;;;;;1.77;1.67;;;;;;;;;;10401103;28;20218;-78
2022/10/01 02:44:50;;;;;;;1.98;1.70;;;;;;;;;;10404597;28;20233;-79
2022/10/01 02:49:52;;;;;;;1.15;1.15;;;;;;;;;;10379374;28;20703;-79
2022/10/01 02:55:14;;;;;;;1.83;1.73;;;;;;;;;;10395483;28;20346;-80
2022/10/01 03:00:20;;;;;;;1.70;1.70;;;;;;;;;;10399778;28;20214;-79
2022/10/01 03:05:21;;;;;;;2.08;1.95;;;;;;;;;;10399740;28;20191;-78
2022/10/01 03:10:22;;;;;;;2.17;2.03;;;;;;;;;;10403909;28;20317;-79
2022/10/01 03:15:23;;;;;;;1.60;1.50;;;;;;;;;;10382966;28;20358;-79
2022/10/01 03:20:25;;;;;;;3.53;1.48;;;;;;;;;;10403265;28;20209;-79
2022/10/01 03:25:26;;;;;;;1.60;1.50;;;;;;;;;;10412806;28;20211;-81
2022/10/01 03:30:29;;;;;;;1.40;1.30;;;;;;;;;;10416020;28;20726;-80
2022/10/01 03:35:31;;;;;;;3.15;1.50;;;;;;;;;;10400579;28;20368;-78
2022/10/01 03:40:36;;;;;;;2.15;2.05;;;;;;;;;;10406226;28;20749;-79
2022/10/01 03:45:38;;;;;;;1.60;1.50;;;;;;;;;;10395256;28;20715;-79
2022/10/01 03:50:39;;;;;;;2.15;2.08;;;;;;;;;;10404104;28;20214;-79
2022/10/01 03:55:40;;;;;;;2.80;2.05;;;;;;;;;;10412355;28;20556;-79
2022/10/01 04:00:41;;;;;;;1.98;1.75;;;;;;;;;;10407917;28;20230;-81
2022/10/01 04:05:43;;;;;;;1.65;1.65;;;;;;;;;;10406613;28;20253;-79
2022/10/01 04:10:44;;;;;;;3.90;1.85;;;;;;;;;;10410876;28;20715;-80
2022/10/01 04:15:47;;;;;;;1.70;1.70;;;;;;;;;;10407603;28;20691;-79
2022/10/01 04:20:48;;;;;;;1.45;1.35;;;;;;;;;;10386922;28;20218;-80
2022/10/01 04:25:49;;;;;;;2.03;1.38;;;;;;;;;;10409911;28;20303;-79
2022/10/01 04:31:23;;;;;;;2.40;1.65;;;;;;;;;;10411554;28;20223;-78
2022/10/01 04:36:12;;;;;;;1.73;1.63;;;;;;;;;;10395212;28;20224;-79
2022/10/01 04:41:13;;;;;;;1.85;1.75;;;;;;;;;;10412785;28;20300;-79
2022/10/01 04:46:15;;;;;;;2.08;1.98;;;;;;;;;;10407732;28;20272;-78
2022/10/01 04:51:17;;;;;;;1.63;1.63;;;;;;;;;;10382117;28;20214;-79
2022/10/01 04:56:18;;;;;;;2.33;2.15;;;;;;;;;;10391475;28;20214;-79
2022/10/01 05:01:19;;;;;;;1.92;1.80;;;;;;;;;;10399289;28;20298;-79
2022/10/01 05:06:20;;;;;;;2.38;2.28;;;;;;;;;;10381686;28;20218;-79
2022/10/01 05:11:21;;;;;;;2.03;1.80;;;;;;;;;;10402456;28;20769;-79
2022/10/01 05:16:22;;;;;;;2.10;2.00;;;;;;;;;;10408201;28;20223;-78
2022/10/01 05:21:23;;;;;;;1.88;1.77;;;;;;;;;;10405521;28;20305;-78
2022/10/01 05:26:24;;;;;;;3.72;2.17;;;;;;;;;;10387319;28;20215;-79
2022/10/01 05:31:26;;;;;;;2.20;2.10;;;;;;;;;;10408609;28;20215;-78
2022/10/01 05:36:27;;;;;;;2.13;2.03;;;;;;;;;;10400575;28;20251;-79
2022/10/01 05:41:28;;;;;;;1.88;1.77;;;;;;;;;;10416347;28;20548;-80
2022/10/01 05:46:30;;;;;;;2.88;2.17;;;;;;;;;;10421576;28;20947;-79
2022/10/01 05:51:32;;;;;;;2.10;2.00;;;;;;;;;;10397711;28;20227;-78
2022/10/01 05:56:33;;;;;;;3.10;2.20;;;;;;;;;;10388685;28;20226;-79
2022/10/01 06:01:35;;;;;;;4.07;2.50;;;;;;;;;;10379209;28;20586;-78
2022/10/01 06:06:36;;;;;;;2.30;2.10;;;;;;;;;;10392474;28;20218;-79
2022/10/01 06:11:37;;;;;;;3.28;2.13;;;;;;;;;;10396501;28;20219;-78
2022/10/01 06:16:38;;;;;;;2.50;2.40;;;;;;;;;;10391863;28;20369;-80
2022/10/01 06:21:39;;;;;;;2.88;2.53;;;;;;;;;;10389123;28;20222;-79
2022/10/01 06:26:41;;;;;;;3.38;3.13;;;;;;;;;;10383943;28;20217;-78
2022/10/01 06:31:42;;;;;;;2.45;2.17;;;;;;;;;;10362831;28;20226;-78
2022/10/01 06:36:43;;;;;;;2.28;2.08;;;;;;;;;;10409839;28;20229;-79
2022/10/01 06:41:44;;;;;;;3.47;3.00;;;;;;;;;;10395734;28;20217;-79
2022/10/01 06:46:49;;;;;;;2.67;2.50;;;;;;;;;;10386282;28;20711;-81
2022/10/01 06:57:10;;;;;;;3.50;3.20;;;;;;;;;;10365775;28;20218;-79
2022/10/01 07:02:27;;;;;;;3.00;2.80;;;;;;;;;;10384034;28;20226;-78
2022/10/01 07:07:32;;;;;;;3.58;2.72;;;;;;;;;;10401439;28;20268;-78
2022/10/01 07:12:34;;;;;;;4.43;2.50;;;;;;;;;;10402156;28;20223;-80
2022/10/01 07:17:41;;;;;;;2.72;2.35;;;;;;;;;;10403395;28;20210;-79
2022/10/01 07:22:43;;;;;;;6.28;3.05;;;;;;;;;;10407872;28;20219;-79
2022/10/01 07:27:44;;;;;;;3.03;2.83;;;;;;;;;;10409264;28;20871;-79
2022/10/01 07:32:45;;;;;;;2.33;2.13;;;;;;;;;;10405709;28;20801;-80
2022/10/01 07:37:47;;;;;;;2.40;2.25;;;;;;;;;;10402721;28;20253;-81
2022/10/01 07:42:55;;;;;;;3.20;3.00;;;;;;;;;;10397620;28;20217;-81
2022/10/01 07:47:57;;;;;;;2.92;2.78;;;;;;;;;;10398294;28;21210;-81
2022/10/01 07:52:59;;;;;;;2.83;2.72;;;;;;;;;;10404498;28;20718;-82
2022/10/01 07:58:00;;;;;;;2.30;2.20;;;;;;;;;;10417613;28;20218;-81
2022/10/01 08:03:02;;;;;;;2.92;2.50;;;;;;;;;;10408461;28;20837;-80
2022/10/01 08:08:04;;;;;;;2.22;2.00;;;;;;;;;;10410280;28;20230;-82
2022/10/01 08:13:13;;;;;;;2.03;1.92;;;;;;;;;;10388699;28;20227;-82
2022/10/01 08:18:14;;;;;;;2.03;1.88;;;;;;;;;;10403082;28;20300;-79
2022/10/01 08:23:16;;;;;;;3.05;1.90;;;;;;;;;;10410749;28;20252;-79
2022/10/01 08:28:17;;;;;;;1.70;1.60;;;;;;;;;;10421039;28;20222;-80
2022/10/01 08:33:18;;;;;;;1.90;1.80;;;;;;;;;;10391036;28;20226;-80
2022/10/01 08:38:19;;;;;;;2.50;1.70;;;;;;;;;;10397728;28;20217;-80
2022/10/01 08:43:28;;;;;;;1.50;1.40;;;;;;;;;;10399504;28;20755;-80
2022/10/01 08:48:51;;;;;;;1.45;1.42;;;;;;;;;;10400655;28;20212;-81
2022/10/01 08:53:57;;;;;;;1.40;1.40;;;;;;;;;;10375480;28;20224;-82
2022/10/01 08:58:59;;;;;;;1.77;1.67;;;;;;;;;;10376239;28;20218;-81
2022/10/01 09:04:00;;;;;;;1.58;1.58;;;;;;;;;;10410217;28;20211;-82
2022/10/01 09:09:01;;;;;;;1.73;1.60;;;;;;;;;;10409404;28;20487;-80
2022/10/01 09:14:23;;;;;;;1.40;1.40;;;;;;;;;;10402423;28;20222;-80
2022/10/01 09:19:31;;;;;;;1.50;1.40;;;;;;;;;;10379226;28;20696;-80
2022/10/01 09:24:37;;;;;;;1.70;1.60;;;;;;;;;;10386920;28;20221;-79
2022/10/01 09:29:44;;;;;;;1.23;1.20;;;;;;;;;;10380811;28;20218;-79
2022/10/01 09:34:45;;;;;;;4.15;0.95;;;;;;;;;;10388155;28;20926;-79
2022/10/01 09:40:13;;;;;;;2.15;1.23;;;;;;;;;;10398621;28;20611;-80
2022/10/01 09:45:15;;;;;;;1.48;1.38;;;;;;;;;;10364692;28;20325;-79
2022/10/01 09:50:30;;;;;;;0.82;0.82;;;;;;;;;;10390134;28;20657;-79
2022/10/01 09:55:35;;;;;;;1.10;1.10;;;;;;;;;;10370730;28;20304;-79
2022/10/01 10:00:39;;;;;;;1.25;1.15;;;;;;;;;;10354799;28;20230;-79
2022/10/01 10:05:43;;;;;;;0.80;0.80;;;;;;;;;;10396320;28;20272;-79
2022/10/01 10:10:51;;;;;;;1.75;1.02;;;;;;;;;;10430388;28;20230;-78
2022/10/01 10:15:56;;;;;;;0.93;0.93;;;;;;;;;;10399904;28;20257;-79
2022/10/01 10:20:58;;;;;;;1.05;1.05;;;;;;;;;;10396766;28;20219;-79
2022/10/01 10:26:04;;;;;;;0.82;0.82;;;;;;;;;;10405830;28;20231;-79
2022/10/01 10:31:09;;;;;;;0.82;0.82;;;;;;;;;;10393143;28;21647;-79
2022/10/01 10:36:14;;;;;;;0.65;0.65;;;;;;;;;;10402265;28;21147;-78
2022/10/01 10:41:20;;;;;;;1.55;0.68;;;;;;;;;;10382055;28;20313;-78
2022/10/01 10:46:22;;;;;;;0.60;0.60;;;;;;;;;;10398028;28;20219;-78
2022/10/01 10:51:26;;;;;;;0.43;0.43;;;;;;;;;;10393073;28;20314;-79
2022/10/01 10:56:28;;;;;;;0.57;0.40;;;;;;;;;;10398431;28;20592;-80
2022/10/01 11:01:30;;;;;;;0.40;0.40;;;;;;;;;;10394708;28;20694;-79
2022/10/01 11:06:31;;;;;;;0.43;0.43;;;;;;;;;;10394677;28;20206;-79
2022/10/01 11:11:50;;;;;;;0.30;0.30;;;;;;;;;;10395674;28;21335;-79
2022/10/01 11:17:03;;;;;;;0.20;0.20;;;;;;;;;;10396612;28;20907;-79
2022/10/01 11:22:23;;;;;;;0.10;0.10;;;;;;;;;;10398197;28;20691;-79
2022/10/01 11:27:35;;;;;;;0.20;0.20;;;;;;;;;;10393176;28;20717;-80
2022/10/01 11:32:36;;;;;;;0.20;0.20;;;;;;;;;;10361509;28;20223;-79
2022/10/01 11:37:40;;;;;;;0.17;0.17;;;;;;;;;;10392097;28;20876;-79
2022/10/01 11:42:44;;;;;;;0.20;0.20;;;;;;;;;;10373411;28;20681;-79
2022/10/01 11:47:51;;;;;;;0.20;0.20;;;;;;;;;;10396288;28;20223;-79
2022/10/01 11:53:02;;;;;;;0.13;0.13;;;;;;;;;;10391230;28;22028;-78
2022/10/01 12:03:53;;;;;;;0.20;0.20;;;;;;;;;;10379458;28;21085;-78
2022/10/01 12:08:59;;;;;;;0.10;0.10;;;;;;;;;;10415306;28;20218;-79
2022/10/01 12:14:09;;;;;;;0.25;0.25;;;;;;;;;;10377139;28;20261;-78
2022/10/01 12:19:20;;;;;;;0.20;0.20;;;;;;;;;;10387785;28;20222;-78
2022/10/01 12:24:30;;;;;;;0.20;0.20;;;;;;;;;;10422221;28;20223;-79
2022/10/01 12:29:52;;;;;;;0.20;0.20;;;;;;;;;;10408858;28;20222;-78
2022/10/01 12:35:02;;;;;;;0.13;0.13;;;;;;;;;;10390711;28;20349;-78
2022/10/01 12:40:25;;;;;;;0.20;0.20;;;;;;;;;;10392343;28;20699;-78
2022/10/01 12:45:35;;;;;;;0.20;0.20;;;;;;;;;;10402304;28;20760;-77
2022/10/01 12:50:42;;;;;;;0.20;0.20;;;;;;;;;;10387679;28;20275;-77
2022/10/01 12:55:54;;;;;;;0.20;0.20;;;;;;;;;;10387536;28;21088;-78
2022/10/01 13:01:04;;;;;;;0.30;0.25;;;;;;;;;;10407420;28;21421;-78
2022/10/01 13:06:14;;;;;;;0.15;0.15;;;;;;;;;;10400572;28;21124;-77
2022/10/01 13:11:26;;;;;;;0.30;0.30;;;;;;;;;;10382442;28;20726;-77
2022/10/01 13:16:48;;;;;;;0.40;0.40;;;;;;;;;;10402706;28;20602;-78
2022/10/01 13:22:03;;;;;;;0.40;0.40;;;;;;;;;;10399593;28;20219;-77
2022/10/01 13:27:20;;;;;;;0.82;0.25;;;;;;;;;;10391252;28;20305;-77
2022/10/01 13:32:24;;;;;;;0.30;0.30;;;;;;;;;;10400737;28;20228;-78
2022/10/01 13:37:33;;;;;;;0.50;0.50;;;;;;;;;;10401829;28;20213;-78
2022/10/01 13:42:43;;;;;;;0.30;0.30;;;;;;;;;;10404213;28;20629;-78
2022/10/01 13:47:44;;;;;;;0.30;0.30;;;;;;;;;;10402598;28;20215;-78
2022/10/01 13:52:45;;;;;;;0.68;0.43;;;;;;;;;;10400182;28;20242;-78
2022/10/01 13:57:46;;;;;;;1.52;0.30;;;;;;;;;;10396851;28;21247;-78
2022/10/01 14:03:05;;;;;;;0.30;0.30;;;;;;;;;;10391958;28;20302;-78
2022/10/01 14:08:25;;;;;;;0.32;0.32;;;;;;;;;;10367857;28;20219;-78
2022/10/01 14:18:49;;;;;;;0.47;0.47;;;;;;;;;;10393046;28;20634;-78
2022/10/01 14:23:55;;;;;;;0.40;0.40;;;;;;;;;;10401285;28;20206;-77
2022/10/01 14:29:07;;;;;;;0.75;0.50;;;;;;;;;;10383067;28;20785;-78
2022/10/01 14:34:20;;;;;;;0.50;0.50;;;;;;;;;;10407012;28;20219;-78
2022/10/01 14:39:23;;;;;;;0.47;0.47;;;;;;;;;;10421625;28;20234;-78
2022/10/01 14:44:26;;;;;;;1.17;0.57;;;;;;;;;;10364117;28;20257;-78
2022/10/01 14:49:28;;;;;;;0.68;0.63;;;;;;;;;;10380824;28;20309;-78
2022/10/01 14:54:31;;;;;;;0.52;0.52;;;;;;;;;;10373473;28;20542;-78
2022/10/01 14:59:39;;;;;;;0.47;0.47;;;;;;;;;;10385725;28;20256;-78
2022/10/01 15:04:44;;;;;;;0.60;0.60;;;;;;;;;;10380606;28;20745;-79
2022/10/01 15:09:46;;;;;;;1.55;0.40;;;;;;;;;;10364765;28;20846;-78
2022/10/01 15:14:52;;;;;;;2.20;0.80;;;;;;;;;;10379434;28;20270;-78
2022/10/01 15:19:55;;;;;;;0.65;0.50;;;;;;;;;;10391357;28;20221;-78
2022/10/01 15:24:59;;;;;;;1.02;0.50;;;;;;;;;;10394165;28;20608;-78
2022/10/01 15:30:00;;;;;;;3.15;0.60;;;;;;;;;;10390943;28;20926;-78
2022/10/01 15:35:02;;;;;;;0.70;0.70;;;;;;;;;;10395586;28;20305;-78
2022/10/01 15:40:08;;;;;;;1.88;0.52;;;;;;;;;;10398326;28;20219;-78
2022/10/01 15:45:09;;;;;;;0.43;0.43;;;;;;;;;;10399212;28;20773;-78
2022/10/01 15:50:10;;;;;;;1.60;0.75;;;;;;;;;;10400431;28;20203;-79
2022/10/01 15:55:15;;;;;;;0.50;0.50;;;;;;;;;;10399492;28;20203;-78
2022/10/01 16:00:21;;;;;;;1.15;0.40;;;;;;;;;;10382042;28;20611;-78
2022/10/01 16:05:24;;;;;;;0.20;0.20;;;;;;;;;;10395821;28;20205;-80
2022/10/01 16:10:29;;;;;;;0.10;0.10;;;;;;;;;;10376039;28;20227;-80
2022/10/01 16:15:30;;;;;;;0.28;0.20;;;;;;;;;;10385573;28;20480;-80
2022/10/01 16:20:36;;;;;;;0.47;0.10;;;;;;;;;;10381560;28;20245;-80
2022/10/01 16:25:43;;;;;;;0.20;0.20;;;;;;;;;;10384267;28;20223;-79
2022/10/01 16:30:49;;;;;;;2.17;0.10;;;;;;;;;;10384846;28;20220;-78
2022/10/01 16:35:50;;;;;;;0.43;0.20;;;;;;;;;;10368721;28;20224;-79
2022/10/01 16:40:51;;;;;;;0.10;0.10;;;;;;;;;;10369460;28;20217;-76
2022/10/01 16:45:52;;;;;;;0.50;0.10;;;;;;;;;;10420741;28;20686;-80
2022/10/01 16:50:57;;;;;;;1.33;0.55;;;;;;;;;;10381465;28;21040;-79
2022/10/01 16:55:58;;;;;;;0.90;0.40;;;;;;;;;;10417854;28;20264;-79
2022/10/01 17:01:05;;;;;;;0.88;0.52;;;;;;;;;;10394559;28;20257;-79
2022/10/01 17:06:06;;;;;;;1.70;0.32;;;;;;;;;;10394054;28;20222;-79
2022/10/01 17:11:10;;;;;;;0.60;0.60;;;;;;;;;;10397403;28;20224;-79
2022/10/01 17:16:11;;;;;;;0.40;0.30;;;;;;;;;;10364110;28;20222;-79
2022/10/01 17:21:13;;;;;;;0.35;0.35;;;;;;;;;;10360775;28;20318;-80
2022/10/01 17:26:14;;;;;;;0.65;0.30;;;;;;;;;;10366805;28;20250;-80
2022/10/01 17:31:15;;;;;;;1.95;0.35;;;;;;;;;;10365175;28;20239;-79
2022/10/01 17:36:16;;;;;;;0.30;0.30;;;;;;;;;;10381580;28;20230;-79
2022/10/01 17:41:17;;;;;;;0.65;0.40;;;;;;;;;;10368822;28;20220;-80
2022/10/01 17:46:18;;;;;;;0.52;0.40;;;;;;;;;;10369211;28;20204;-80
2022/10/01 17:51:19;;;;;;;0.60;0.40;;;;;;;;;;10364067;28;20223;-81
2022/10/01 17:56:21;;;;;;;0.20;0.20;;;;;;;;;;10365964;28;20231;-80
2022/10/01 18:01:22;;;;;;;0.75;0.75;;;;;;;;;;10363396;28;20295;-80
2022/10/01 18:06:23;;;;;;;1.60;0.65;;;;;;;;;;10356135;28;20231;-80
2022/10/01 18:11:26;;;;;;;0.63;0.63;;;;;;;;;;10385274;28;20644;-80
2022/10/01 18:16:27;;;;;;;0.63;0.30;;;;;;;;;;10398882;28;20992;-80
2022/10/01 18:21:28;;;;;;;0.43;0.43;;;;;;;;;;10399778;28;20214;-80
2022/10/01 18:26:29;;;;;;;0.20;0.20;;;;;;;;;;10404629;28;20214;-80
2022/10/01 18:31:39;;;;;;;0.40;0.40;;;;;;;;;;10402840;28;20713;-80
2022/10/01 18:36:59;;;;;;;0.45;0.30;;;;;;;;;;10402711;28;20325;-79
2022/10/01 18:42:03;;;;;;;1.10;0.47;;;;;;;;;;10402474;28;20223;-79
2022/10/01 18:47:05;;;;;;;2.25;0.50;;;;;;;;;;10400242;28;20244;-79
2022/10/01 18:52:13;;;;;;;0.30;0.30;;;;;;;;;;10403892;28;20258;-79
2022/10/01 18:57:28;;;;;;;0.30;0.20;;;;;;;;;;10399909;28;20306;-79
2022/10/01 19:02:47;;;;;;;0.28;0.28;;;;;;;;;;10401515;28;20214;-79
2022/10/01 19:08:07;;;;;;;0.40;0.40;;;;;;;;;;10407407;28;20758;-79
2022/10/01 19:13:12;;;;;;;0.73;0.50;;;;;;;;;;10396193;28;20269;-78
2022/10/01 19:18:19;;;;;;;0.28;0.28;;;;;;;;;;10388847;28;20214;-79
2022/10/01 19:23:39;;;;;;;0.20;0.20;;;;;;;;;;10387382;28;20292;-78
2022/10/01 19:28:41;;;;;;;0.55;0.40;;;;;;;;;;10373358;28;20253;-78
2022/10/01 19:33:46;;;;;;;0.50;0.38;;;;;;;;;;10406580;28;20233;-77
2022/10/01 19:38:48;;;;;;;1.27;0.40;;;;;;;;;;10388964;28;20663;-78
2022/10/01 19:43:54;;;;;;;0.68;0.40;;;;;;;;;;10401368;28;21084;-79
2022/10/01 19:49:12;;;;;;;0.30;0.30;;;;;;;;;;10407627;28;20756;-78
2022/10/01 19:54:15;;;;;;;0.50;0.50;;;;;;;;;;10407568;28;20284;-77
2022/10/01 19:59:20;;;;;;;2.50;0.73;;;;;;;;;;10391358;28;20210;-78
2022/10/01 20:04:48;;;;;;;3.08;0.40;;;;;;;;;;10397985;28;20208;-81
2022/10/01 20:09:53;;;;;;;0.40;0.40;;;;;;;;;;10398451;28;20657;-78
2022/10/01 20:15:11;;;;;;;5.15;0.60;;;;;;;;;;10398663;28;20269;-78
2022/10/01 20:20:22;;;;;;;1.35;0.70;;;;;;;;;;10399537;28;20262;-79
2022/10/01 20:25:46;;;;;;;0.32;0.32;;;;;;;;;;10384255;28;20171;-78
2022/10/01 20:31:04;;;;;;;5.20;0.80;;;;;;;;;;10393084;28;20219;-78
2022/10/01 20:36:20;;;;;;;1.17;0.40;;;;;;;;;;10394509;28;20218;-78
2022/10/01 20:41:23;;;;;;;7.32;0.75;;;;;;;;;;10393403;28;20714;-78
2022/10/01 20:46:33;;;;;;;1.30;0.50;;;;;;;;;;10396475;28;20649;-78
2022/10/01 20:51:36;;;;;;;0.73;0.65;;;;;;;;;;10400416;28;20231;-79
2022/10/01 20:56:39;;;;;;;0.52;0.40;;;;;;;;;;10400710;28;20681;-78
2022/10/01 21:01:45;;;;;;;2.78;0.73;;;;;;;;;;10394630;28;20219;-77
2022/10/01 21:06:47;;;;;;;0.40;0.40;;;;;;;;;;10398142;28;20265;-79
2022/10/01 21:11:52;;;;;;;1.80;0.70;;;;;;;;;;10397152;28;20285;-78
2022/10/01 21:17:08;;;;;;;1.55;0.40;;;;;;;;;;10404300;28;20238;-78
2022/10/01 21:22:23;;;;;;;1.77;0.63;;;;;;;;;;10399536;28;20306;-77
2022/10/01 21:27:37;;;;;;;1.23;0.57;;;;;;;;;;10402306;28;20206;-78
2022/10/01 21:32:41;;;;;;;2.63;0.30;;;;;;;;;;10397592;28;20219;-78
2022/10/01 21:37:48;;;;;;;1.88;0.40;;;;;;;;;;10397462;28;20230;-78
2022/10/01 21:42:56;;;;;;;1.48;0.52;;;;;;;;;;10399816;28;20607;-78
2022/10/01 21:48:15;;;;;;;1.65;0.47;;;;;;;;;;10378381;28;20277;-78
2022/10/01 21:53:39;;;;;;;2.58;0.30;;;;;;;;;;10402770;28;20219;-77
2022/10/01 21:58:46;;;;;;;7.13;0.60;;;;;;;;;;10383214;28;20707;-76
2022/10/01 22:03:58;;;;;;;1.08;0.40;;;;;;;;;;10383341;28;20368;-78
2022/10/01 22:09:02;;;;;;;0.60;0.60;;;;;;;;;;10400846;28;20973;-78
2022/10/01 22:14:11;;;;;;;0.95;0.50;;;;;;;;;;10403050;28;20280;-78
2022/10/01 22:19:15;;;;;;;1.63;0.47;;;;;;;;;;10400268;28;20215;-77
2022/10/01 22:24:26;;;;;;;2.40;0.60;;;;;;;;;;10398169;28;20723;-77
2022/10/01 22:29:28;;;;;;;9.32;0.68;;;;;;;;;;10397791;28;20950;-78
2022/10/01 22:34:35;;;;;;;0.90;0.40;;;;;;;;;;10379983;28;20223;-76
2022/10/01 22:39:38;;;;;;;0.43;0.43;;;;;;;;;;10398849;28;20580;-78
2022/10/01 22:44:40;;;;;;;1.73;0.40;;;;;;;;;;10399370;28;20213;-79
2022/10/01 22:49:50;;;;;;;2.55;0.43;;;;;;;;;;10397792;28;20222;-79
2022/10/01 22:55:04;;;;;;;5.25;0.98;;;;;;;;;;10393557;28;20218;-79
2022/10/01 23:00:08;;;;;;;1.85;0.50;;;;;;;;;;10401409;28;20306;-78
2022/10/01 23:05:09;;;;;;;2.58;0.70;;;;;;;;;;10400255;28;20249;-78
2022/10/01 23:10:20;;;;;;;4.00;0.80;;;;;;;;;;10402752;28;20726;-78
2022/10/01 23:15:35;;;;;;;1.80;0.30;;;;;;;;;;10397991;28;20249;-78
2022/10/01 23:20:40;;;;;;;5.78;0.82;;;;;;;;;;10398872;28;20236;-81
2022/10/01 23:26:00;;;;;;;1.50;0.77;;;;;;;;;;10402906;28;20578;-78
2022/10/01 23:31:10;;;;;;;4.20;0.70;;;;;;;;;;10400055;28;20226;-79
2022/10/01 23:36:28;;;;;;;4.75;0.55;;;;;;;;;;10407467;28;20302;-79
2022/10/01 23:41:32;;;;;;;1.65;0.43;;;;;;;;;;10395870;28;20225;-79
2022/10/01 23:46:33;;;;;;;2.20;0.30;;;;;;;;;;10406099;28;20579;-78
2022/10/01 23:51:37;;;;;;;2.30;0.85;;;;;;;;;;10405932;28;20223;-78
2022/10/01 23:56:47;;;;;;;5.97;0.85;;;;;;;;;;10392283;28;20222;-78
